createdAt,value
2019-03-10T00:00:40.106Z,15.10
2019-03-10T00:03:09.440Z,16.87
2019-03-10T00:05:38.822Z,11.97
2019-03-10T00:08:08.302Z,11.97
2019-03-10T00:10:37.758Z,12.43
2019-03-10T00:13:07.081Z,15.83
2019-03-10T00:15:36.405Z,20.30
2019-03-10T00:18:05.787Z,14.97
2019-03-10T00:20:35.106Z,13.80
2019-03-10T00:23:04.425Z,19.77
2019-03-10T00:25:33.743Z,16.17
2019-03-10T00:28:03.062Z,15.97
2019-03-10T00:30:32.410Z,12.90
2019-03-10T00:33:01.787Z,14.53
2019-03-10T00:35:31.143Z,12.97
2019-03-10T00:38:00.456Z,15.83
2019-03-10T00:40:50.741Z,13.33
2019-03-10T00:43:32.094Z,12.00
2019-03-10T00:46:37.556Z,15.47
2019-03-10T00:49:43.318Z,14.63
2019-03-10T00:52:21.816Z,19.30
2019-03-10T00:54:51.135Z,12.50
2019-03-10T00:57:20.447Z,12.83
2019-03-10T00:59:49.767Z,11.73
2019-03-10T01:02:19.086Z,17.13
2019-03-10T01:04:48.462Z,17.17
2019-03-10T01:07:17.791Z,19.57
2019-03-10T01:09:47.128Z,19.10
2019-03-10T01:12:16.442Z,11.53
2019-03-10T01:14:45.788Z,25.60
2019-03-10T01:17:16.135Z,12.77
2019-03-10T01:19:45.756Z,14.00
2019-03-10T01:22:15.075Z,12.57
2019-03-10T01:24:44.401Z,16.83
2019-03-10T01:27:13.794Z,13.23
2019-03-10T01:29:43.119Z,17.80
2019-03-10T01:32:18.114Z,19.93
2019-03-10T01:34:59.724Z,20.97
2019-03-10T01:37:29.040Z,14.20
2019-03-10T01:39:58.356Z,13.77
2019-03-10T01:42:27.677Z,9.13
2019-03-10T01:44:56.987Z,9.57
2019-03-10T01:47:26.306Z,8.73
2019-03-10T01:49:55.618Z,12.43
2019-03-10T01:52:24.958Z,10.30
2019-03-10T01:54:54.384Z,6.37
2019-03-10T01:57:23.767Z,7.20
2019-03-10T01:59:53.083Z,11.90
2019-03-10T02:02:25.733Z,8.83
2019-03-10T02:04:53.519Z,5.37
2019-03-10T02:07:22.830Z,8.83
2019-03-10T02:09:52.146Z,7.33
2019-03-10T02:12:21.472Z,7.70
2019-03-10T02:14:50.787Z,6.33
2019-03-10T02:17:20.110Z,8.33
2019-03-10T02:19:49.882Z,6.57
2019-03-10T02:22:19.199Z,6.87
2019-03-10T02:24:48.513Z,5.87
2019-03-10T02:27:17.831Z,6.60
2019-03-10T02:29:47.148Z,10.63
2019-03-10T02:32:17.746Z,9.30
2019-03-10T02:34:47.163Z,6.40
2019-03-10T02:37:16.484Z,6.90
2019-03-10T02:39:45.821Z,6.03
2019-03-10T02:42:15.140Z,6.47
2019-03-10T02:44:44.459Z,10.70
2019-03-10T02:47:13.779Z,13.43
2019-03-10T02:49:43.115Z,14.80
2019-03-10T02:52:12.430Z,12.30
2019-03-10T02:54:41.775Z,14.33
2019-03-10T02:57:11.126Z,11.50
2019-03-10T02:59:40.516Z,18.77
2019-03-10T03:02:09.940Z,16.27
2019-03-10T03:04:39.332Z,11.83
2019-03-10T03:07:08.649Z,16.53
2019-03-10T03:09:38.001Z,11.10
2019-03-10T03:12:07.380Z,18.03
2019-03-10T03:14:36.726Z,9.27
2019-03-10T03:17:06.037Z,10.43
2019-03-10T03:19:35.364Z,14.83
2019-03-10T03:22:04.676Z,15.87
2019-03-10T03:24:34.044Z,15.63
2019-03-10T03:27:03.359Z,14.90
2019-03-10T03:29:32.703Z,23.80
2019-03-10T03:32:02.059Z,19.20
2019-03-10T03:34:31.635Z,14.03
2019-03-10T03:37:01.220Z,17.87
2019-03-10T03:39:32.557Z,19.10
2019-03-10T03:42:01.869Z,16.33
2019-03-10T03:44:31.255Z,12.47
2019-03-10T03:47:00.714Z,17.33
2019-03-10T03:49:31.083Z,11.97
2019-03-10T03:52:00.507Z,17.00
2019-03-10T03:54:29.912Z,12.40
2019-03-10T03:56:59.283Z,15.50
2019-03-10T03:59:28.614Z,14.20
2019-03-10T04:02:02.549Z,13.37
2019-03-10T04:04:31.867Z,14.17
2019-03-10T04:07:01.214Z,15.43
2019-03-10T04:09:30.633Z,15.53
2019-03-10T04:12:00.144Z,11.70
2019-03-10T04:14:29.473Z,13.70
2019-03-10T04:16:58.797Z,12.43
2019-03-10T04:19:28.228Z,12.00
2019-03-10T04:21:57.537Z,19.60
2019-03-10T04:24:26.870Z,14.00
2019-03-10T04:26:56.185Z,13.60
2019-03-10T04:29:25.508Z,16.07
2019-03-10T04:31:54.828Z,15.30
2019-03-10T04:34:24.161Z,17.53
2019-03-10T04:36:53.479Z,12.27
2019-03-10T04:39:22.807Z,11.60
2019-03-10T04:41:52.152Z,17.67
2019-03-10T04:44:21.563Z,17.93
2019-03-10T04:46:50.916Z,14.50
2019-03-10T04:49:20.263Z,16.07
2019-03-10T04:51:49.596Z,17.30
2019-03-10T04:54:20.569Z,21.70
2019-03-10T04:56:51.566Z,21.40
2019-03-10T04:59:20.927Z,15.33
2019-03-10T05:01:50.240Z,14.90
2019-03-10T05:04:19.591Z,19.47
2019-03-10T05:06:48.914Z,19.20
2019-03-10T05:09:18.336Z,15.73
2019-03-10T05:11:47.658Z,12.13
2019-03-10T05:14:16.976Z,15.37
2019-03-10T05:16:46.288Z,10.43
2019-03-10T05:19:15.615Z,15.57
2019-03-10T05:21:44.950Z,12.33
2019-03-10T05:24:14.278Z,17.73
2019-03-10T05:26:43.596Z,9.73
2019-03-10T05:29:12.916Z,13.53
2019-03-10T05:31:42.259Z,16.23
2019-03-10T05:34:11.647Z,15.07
2019-03-10T05:36:40.995Z,8.27
2019-03-10T05:39:10.303Z,19.37
2019-03-10T05:41:39.635Z,13.27
2019-03-10T05:44:10.024Z,16.40
2019-03-10T05:46:39.342Z,15.90
2019-03-10T05:49:08.663Z,18.20
2019-03-10T05:51:37.996Z,20.77
2019-03-10T05:54:07.311Z,15.47
2019-03-10T05:56:36.639Z,14.50
2019-03-10T05:59:05.951Z,11.77
2019-03-10T06:01:35.300Z,14.53
2019-03-10T06:04:04.620Z,15.43
2019-03-10T06:06:33.960Z,17.63
2019-03-10T06:09:04.727Z,14.67
2019-03-10T06:11:34.071Z,12.33
2019-03-10T06:14:03.485Z,21.13
2019-03-10T06:16:32.912Z,12.70
2019-03-10T06:19:02.291Z,14.33
2019-03-10T06:21:31.896Z,15.57
2019-03-10T06:24:01.280Z,11.67
2019-03-10T06:26:31.571Z,16.73
2019-03-10T06:29:00.887Z,15.57
2019-03-10T06:31:30.208Z,12.83
2019-03-10T06:33:59.519Z,10.80
2019-03-10T06:36:28.854Z,14.60
2019-03-10T06:38:58.172Z,10.83
2019-03-10T06:41:27.492Z,15.67
2019-03-10T06:43:56.841Z,10.97
2019-03-10T06:46:26.220Z,9.07
2019-03-10T06:48:55.539Z,11.60
2019-03-10T06:51:24.866Z,5.37
2019-03-10T06:53:54.187Z,16.03
2019-03-10T06:56:23.536Z,11.30
2019-03-10T06:58:52.881Z,11.00
2019-03-10T07:01:23.240Z,14.03
2019-03-10T07:03:52.660Z,9.63
2019-03-10T07:06:22.047Z,7.83
2019-03-10T07:08:51.375Z,9.93
2019-03-10T07:11:20.701Z,6.23
2019-03-10T07:13:50.153Z,7.67
2019-03-10T07:16:19.541Z,9.73
2019-03-10T07:18:48.898Z,9.90
2019-03-10T07:21:18.300Z,12.33
2019-03-10T07:23:47.690Z,8.50
2019-03-10T07:26:17.033Z,9.47
2019-03-10T07:28:54.095Z,12.93
2019-03-10T07:31:25.059Z,10.47
2019-03-10T07:34:04.885Z,12.93
2019-03-10T07:36:52.435Z,11.67
2019-03-10T07:39:23.396Z,11.33
2019-03-10T07:42:00.216Z,11.17
2019-03-10T07:44:40.216Z,10.90
2019-03-10T07:47:11.202Z,11.97
2019-03-10T07:49:42.197Z,8.63
2019-03-10T07:52:20.110Z,14.27
2019-03-10T07:55:02.490Z,10.03
2019-03-10T07:57:33.450Z,9.47
2019-03-10T08:00:20.871Z,13.47
2019-03-10T08:02:57.544Z,15.17
2019-03-10T08:05:34.241Z,9.57
2019-03-10T08:08:16.982Z,8.90
2019-03-10T08:10:53.672Z,11.30
2019-03-10T08:13:27.299Z,15.80
2019-03-10T08:15:58.262Z,9.20
2019-03-10T08:18:38.275Z,15.07
2019-03-10T08:21:11.909Z,14.20
2019-03-10T08:23:59.166Z,11.57
2019-03-10T08:26:39.367Z,12.60
2019-03-10T08:29:13.036Z,9.53
2019-03-10T08:31:50.269Z,8.60
2019-03-10T08:34:21.235Z,11.17
2019-03-10T08:37:07.210Z,20.70
2019-03-10T08:39:38.175Z,12.77
2019-03-10T08:42:19.545Z,13.47
2019-03-10T08:44:42.890Z,12.67
2019-03-10T08:47:13.852Z,10.87
2019-03-10T08:49:45.637Z,13.30
2019-03-10T08:52:26.048Z,11.43
2019-03-10T08:55:03.092Z,13.33
2019-03-10T08:57:42.969Z,12.67
2019-03-10T09:00:30.319Z,10.70
2019-03-10T09:03:07.083Z,9.93
2019-03-10T09:05:54.372Z,11.80
2019-03-10T09:08:28.442Z,18.37
2019-03-10T09:11:12.602Z,12.80
2019-03-10T09:13:59.875Z,15.60
2019-03-10T09:16:30.863Z,13.03
2019-03-10T09:19:01.839Z,15.93
2019-03-10T09:21:39.458Z,14.23
2019-03-10T09:24:13.479Z,10.43
2019-03-10T09:26:50.007Z,14.73
2019-03-10T09:29:21.031Z,11.93
2019-03-10T09:31:57.959Z,14.23
2019-03-10T09:34:34.895Z,14.70
2019-03-10T09:37:14.825Z,14.60
2019-03-10T09:39:45.792Z,17.40
2019-03-10T09:42:16.793Z,16.20
2019-03-10T09:44:53.754Z,11.87
2019-03-10T09:47:24.758Z,13.17
2019-03-10T09:49:58.462Z,13.60
2019-03-10T09:52:32.397Z,15.23
2019-03-10T09:55:09.581Z,19.77
2019-03-10T09:57:49.404Z,11.73
2019-03-10T10:00:23.359Z,11.43
2019-03-10T10:03:00.066Z,13.03
2019-03-10T10:05:46.387Z,15.87
2019-03-10T10:08:32.390Z,12.77
2019-03-10T10:11:15.313Z,11.50
2019-03-10T10:13:52.431Z,10.47
2019-03-10T10:16:39.511Z,11.33
2019-03-10T10:19:10.490Z,10.27
2019-03-10T10:21:41.493Z,10.67
2019-03-10T10:24:15.109Z,11.27
2019-03-10T10:26:48.859Z,14.23
2019-03-10T10:29:25.790Z,9.63
2019-03-10T10:31:56.776Z,12.27
2019-03-10T10:34:43.915Z,15.90
2019-03-10T10:37:20.972Z,10.93
2019-03-10T10:40:08.503Z,12.40
2019-03-10T10:42:55.651Z,11.57
2019-03-10T10:45:38.424Z,12.03
2019-03-10T10:48:18.643Z,11.30
2019-03-10T10:51:04.923Z,7.30
2019-03-10T10:53:35.928Z,9.80
2019-03-10T10:56:16.147Z,10.70
2019-03-10T10:58:49.824Z,8.43
2019-03-10T11:01:34.118Z,10.63
2019-03-10T11:04:05.196Z,9.93
2019-03-10T11:06:36.186Z,10.30
2019-03-10T11:09:15.232Z,6.90
2019-03-10T11:11:55.466Z,12.40
2019-03-10T11:14:44.541Z,10.43
2019-03-10T11:17:21.261Z,9.73
2019-03-10T11:20:04.232Z,11.67
2019-03-10T11:22:51.131Z,10.37
2019-03-10T11:25:30.811Z,7.93
2019-03-10T11:28:04.647Z,8.13
2019-03-10T11:30:51.009Z,5.90
2019-03-10T11:33:27.833Z,8.90
2019-03-10T11:36:15.143Z,6.10
2019-03-10T11:39:02.641Z,8.40
2019-03-10T11:41:35.243Z,10.60
2019-03-10T11:44:22.459Z,11.47
2019-03-10T11:46:53.431Z,8.23
2019-03-10T11:49:24.469Z,7.13
2019-03-10T11:51:55.465Z,9.63
2019-03-10T11:54:32.204Z,4.63
2019-03-10T11:57:18.450Z,13.10
2019-03-10T12:00:01.585Z,7.00
2019-03-10T12:02:36.575Z,9.50
2019-03-10T12:05:24.762Z,7.23
2019-03-10T12:08:01.495Z,9.53
2019-03-10T12:10:30.840Z,12.10
2019-03-10T12:13:00.237Z,9.63
2019-03-10T12:15:29.599Z,10.53
2019-03-10T12:17:58.967Z,9.93
2019-03-10T12:20:28.283Z,9.07
2019-03-10T12:22:57.626Z,6.90
2019-03-10T12:25:26.971Z,9.67
2019-03-10T12:27:56.355Z,7.73
2019-03-10T12:30:25.699Z,10.40
2019-03-10T12:32:55.019Z,10.40
2019-03-10T12:35:33.863Z,9.17
2019-03-10T12:37:55.383Z,15.70
2019-03-10T12:40:24.738Z,8.23
2019-03-10T12:42:54.079Z,10.83
2019-03-10T12:45:23.680Z,3.43
2019-03-10T12:47:53.033Z,4.70
2019-03-10T12:50:23.583Z,2.90
2019-03-10T12:52:52.931Z,8.60
2019-03-10T12:55:22.346Z,3.60
2019-03-10T12:57:51.747Z,2.67
2019-03-10T13:00:21.107Z,5.80
2019-03-10T13:02:50.427Z,3.67
2019-03-10T13:05:19.836Z,2.87
2019-03-10T13:07:49.213Z,3.93
2019-03-10T13:10:18.560Z,5.07
2019-03-10T13:12:47.880Z,5.60
2019-03-10T13:15:17.206Z,6.60
2019-03-10T13:17:46.519Z,4.30
2019-03-10T13:20:15.911Z,5.87
2019-03-10T13:22:45.248Z,5.00
2019-03-10T13:25:14.707Z,5.53
2019-03-10T13:27:44.043Z,6.67
2019-03-10T13:30:16.951Z,5.03
2019-03-10T13:32:46.272Z,4.47
2019-03-10T13:35:15.601Z,6.83
2019-03-10T13:37:44.921Z,7.40
2019-03-10T13:40:15.249Z,6.53
2019-03-10T13:42:44.603Z,7.37
2019-03-10T13:45:19.296Z,5.23
2019-03-10T13:47:49.744Z,6.27
2019-03-10T13:50:19.208Z,10.87
2019-03-10T13:52:48.520Z,8.97
2019-03-10T13:55:17.888Z,11.60
2019-03-10T13:57:47.299Z,7.13
2019-03-10T14:00:25.153Z,6.17
2019-03-10T14:02:54.574Z,9.57
2019-03-10T14:05:23.977Z,3.40
2019-03-10T14:07:53.481Z,5.30
2019-03-10T14:10:23.444Z,7.47
2019-03-10T14:12:52.971Z,5.37
2019-03-10T14:15:22.465Z,3.00
2019-03-10T14:17:53.069Z,3.70
2019-03-10T14:20:22.491Z,5.07
2019-03-10T14:22:52.030Z,2.83
2019-03-10T14:25:21.427Z,2.10
2019-03-10T14:27:50.759Z,2.10
2019-03-10T14:30:20.609Z,5.17
2019-03-10T14:32:50.543Z,5.33
2019-03-10T14:35:20.358Z,6.30
2019-03-10T14:37:50.065Z,6.50
2019-03-10T14:40:22.717Z,5.73
2019-03-10T14:42:52.526Z,5.00
2019-03-10T14:45:22.394Z,10.37
2019-03-10T14:47:51.943Z,6.30
2019-03-10T14:50:21.327Z,6.43
2019-03-10T14:52:50.698Z,5.20
2019-03-10T14:55:21.389Z,6.60
2019-03-10T14:57:50.737Z,6.13
2019-03-10T15:00:22.376Z,7.07
2019-03-10T15:02:51.716Z,6.90
2019-03-10T15:05:21.227Z,7.70
2019-03-10T15:07:50.588Z,6.70
2019-03-10T15:10:20.064Z,6.90
2019-03-10T15:12:49.418Z,9.00
2019-03-10T15:15:22.688Z,11.73
2019-03-10T15:17:50.651Z,7.30
2019-03-10T15:20:21.643Z,9.77
2019-03-10T15:22:51.189Z,6.03
2019-03-10T15:25:21.775Z,4.33
2019-03-10T15:27:51.107Z,6.60
2019-03-10T15:30:41.392Z,3.97
2019-03-10T15:33:10.815Z,4.87
2019-03-10T15:35:41.250Z,7.77
2019-03-10T15:38:10.657Z,7.10
2019-03-10T15:40:40.000Z,7.20
2019-03-10T15:43:09.331Z,3.90
2019-03-10T15:45:38.675Z,6.40
2019-03-10T15:48:08.003Z,2.00
2019-03-10T15:50:39.912Z,3.53
2019-03-10T15:53:09.263Z,4.70
2019-03-10T15:55:38.674Z,5.10
2019-03-10T15:58:08.000Z,3.37
2019-03-10T16:00:37.406Z,3.07
2019-03-10T16:03:06.811Z,3.53
2019-03-10T16:05:36.175Z,5.33
2019-03-10T16:08:05.491Z,5.83
2019-03-10T16:10:34.816Z,4.63
2019-03-10T16:13:04.124Z,5.93
2019-03-10T16:15:33.482Z,7.03
2019-03-10T16:18:02.797Z,21.97
2019-03-10T16:20:32.260Z,28.50
2019-03-10T16:23:01.633Z,8.80
2019-03-10T16:25:31.036Z,10.37
2019-03-10T16:28:00.415Z,8.30
2019-03-10T16:30:30.031Z,7.70
2019-03-10T16:32:59.384Z,7.30
2019-03-10T16:35:28.819Z,5.33
2019-03-10T16:37:58.159Z,11.27
2019-03-10T16:40:27.547Z,7.00
2019-03-10T16:42:56.868Z,4.27
2019-03-10T16:45:27.471Z,6.30
2019-03-10T16:47:58.361Z,4.87
2019-03-10T16:50:28.685Z,5.70
2019-03-10T16:52:58.138Z,5.53
2019-03-10T16:55:27.478Z,5.53
2019-03-10T16:57:56.818Z,5.33
2019-03-10T17:00:26.308Z,4.70
2019-03-10T17:02:55.639Z,4.77
2019-03-10T17:05:24.948Z,5.00
2019-03-10T17:07:54.306Z,3.90
2019-03-10T17:10:24.946Z,6.87
2019-03-10T17:12:54.404Z,3.70
2019-03-10T17:15:24.560Z,4.73
2019-03-10T17:17:53.955Z,3.00
2019-03-10T17:20:23.269Z,5.53
2019-03-10T17:22:52.873Z,5.53
2019-03-10T17:25:22.184Z,2.63
2019-03-10T17:27:51.703Z,6.83
2019-03-10T17:30:22.527Z,5.33
2019-03-10T17:32:51.907Z,6.80
2019-03-10T17:35:21.842Z,4.37
2019-03-10T17:37:51.310Z,6.20
2019-03-10T17:40:25.121Z,6.27
2019-03-10T17:42:54.449Z,8.97
2019-03-10T17:45:24.921Z,4.77
2019-03-10T17:47:54.323Z,5.23
2019-03-10T17:50:23.773Z,10.47
2019-03-10T17:52:53.124Z,9.23
2019-03-10T17:55:23.171Z,7.63
2019-03-10T17:57:52.525Z,7.97
2019-03-10T18:00:23.815Z,9.33
2019-03-10T18:02:53.179Z,10.93
2019-03-10T18:05:22.530Z,7.63
2019-03-10T18:07:51.866Z,10.27
2019-03-10T18:10:21.185Z,9.07
2019-03-10T18:12:50.518Z,14.03
2019-03-10T18:15:19.891Z,15.33
2019-03-10T18:17:49.222Z,14.50
2019-03-10T18:20:22.459Z,9.37
2019-03-10T18:22:51.812Z,7.27
2019-03-10T18:25:21.302Z,8.73
2019-03-10T18:27:50.631Z,5.60
2019-03-10T18:30:24.287Z,11.97
2019-03-10T18:32:53.687Z,12.10
2019-03-10T18:35:23.012Z,8.77
2019-03-10T18:37:52.364Z,11.37
2019-03-10T18:40:28.384Z,15.40
2019-03-10T18:42:57.722Z,12.13
2019-03-10T18:45:27.041Z,12.23
2019-03-10T18:47:56.416Z,11.77
2019-03-10T18:50:26.972Z,16.77
2019-03-10T18:52:56.698Z,10.30
2019-03-10T18:55:26.988Z,22.37
2019-03-10T18:57:56.318Z,12.43
2019-03-10T19:00:29.651Z,9.43
2019-03-10T19:02:59.027Z,11.37
2019-03-10T19:05:28.342Z,14.70
2019-03-10T19:07:57.672Z,18.27
2019-03-10T19:10:26.996Z,14.83
2019-03-10T19:12:56.315Z,16.27
2019-03-10T19:15:27.851Z,19.30
2019-03-10T19:17:57.179Z,17.80
2019-03-10T19:20:26.491Z,16.87
2019-03-10T19:22:55.826Z,14.83
2019-03-10T19:25:25.139Z,15.40
2019-03-10T19:27:54.493Z,15.67
2019-03-10T19:30:24.635Z,12.77
2019-03-10T19:32:53.969Z,15.17
2019-03-10T19:35:23.280Z,19.10
2019-03-10T19:37:52.608Z,15.23
2019-03-10T19:40:23.394Z,14.23
2019-03-10T19:42:52.800Z,10.50
2019-03-10T19:45:23.170Z,18.53
2019-03-10T19:47:52.599Z,15.67
2019-03-10T19:50:26.862Z,14.77
2019-03-10T19:52:55.272Z,18.60
2019-03-10T19:55:24.615Z,11.73
2019-03-10T19:57:54.130Z,13.10
2019-03-10T20:00:23.528Z,15.23
2019-03-10T20:02:52.879Z,8.80
2019-03-10T20:05:22.211Z,13.03
2019-03-10T20:07:51.565Z,18.77
2019-03-10T20:10:22.331Z,15.53
2019-03-10T20:12:51.711Z,17.00
2019-03-10T20:15:22.195Z,11.73
2019-03-10T20:17:51.696Z,17.10
2019-03-10T20:20:29.596Z,13.13
2019-03-10T20:23:01.006Z,12.57
2019-03-10T20:25:30.025Z,15.97
2019-03-10T20:27:59.395Z,10.70
2019-03-10T20:30:28.738Z,14.60
2019-03-10T20:32:58.190Z,16.30
2019-03-10T20:35:27.586Z,8.90
2019-03-10T20:37:56.963Z,14.73
2019-03-10T20:40:29.496Z,12.13
2019-03-10T20:42:58.820Z,9.57
2019-03-10T20:45:28.200Z,5.83
2019-03-10T20:47:57.689Z,8.40
2019-03-10T20:50:27.009Z,7.47
2019-03-10T20:52:56.323Z,8.57
2019-03-10T20:55:25.639Z,8.17
2019-03-10T20:57:54.955Z,10.20
2019-03-10T21:00:28.459Z,12.23
2019-03-10T21:02:58.015Z,9.23
2019-03-10T21:05:27.539Z,10.37
2019-03-10T21:07:56.923Z,14.37
2019-03-10T21:10:27.613Z,11.90
2019-03-10T21:12:56.959Z,13.93
2019-03-10T21:15:26.871Z,10.63
2019-03-10T21:17:56.337Z,11.87
2019-03-10T21:20:26.407Z,11.27
2019-03-10T21:22:55.807Z,13.63
2019-03-10T21:25:30.095Z,11.73
2019-03-10T21:27:59.427Z,11.53
2019-03-10T21:30:30.957Z,15.13
2019-03-10T21:33:00.308Z,9.93
2019-03-10T21:35:29.734Z,10.03
2019-03-10T21:37:59.063Z,10.63
2019-03-10T21:40:30.431Z,13.67
2019-03-10T21:42:59.781Z,10.47
2019-03-10T21:45:29.111Z,11.27
2019-03-10T21:47:58.452Z,9.73
2019-03-10T21:50:27.807Z,10.00
2019-03-10T21:52:57.188Z,5.70
2019-03-10T21:55:26.527Z,8.80
2019-03-10T21:57:55.855Z,10.60
2019-03-10T22:00:25.179Z,6.03
2019-03-10T22:02:54.694Z,7.67
2019-03-10T22:05:24.042Z,8.10
2019-03-10T22:07:53.592Z,5.87
2019-03-10T22:10:27.484Z,9.33
2019-03-10T22:12:53.947Z,7.67
2019-03-10T22:15:23.271Z,6.93
2019-03-10T22:17:52.588Z,8.90
2019-03-10T22:20:21.935Z,6.43
2019-03-10T22:22:51.240Z,7.23
2019-03-10T22:25:20.563Z,6.87
2019-03-10T22:27:49.877Z,7.93
2019-03-10T22:30:20.444Z,10.63
2019-03-10T22:32:49.758Z,20.60
2019-03-10T22:35:19.256Z,9.90
2019-03-10T22:37:48.631Z,7.53
2019-03-10T22:40:18.591Z,6.13
2019-03-10T22:42:47.984Z,6.13
2019-03-10T22:45:20.823Z,6.80
2019-03-10T22:47:50.171Z,7.93
2019-03-10T22:50:19.501Z,6.33
2019-03-10T22:52:48.834Z,8.33
2019-03-10T22:55:18.236Z,5.27
2019-03-10T22:57:47.547Z,7.13
2019-03-10T23:00:26.232Z,12.47
2019-03-10T23:02:57.183Z,8.40
2019-03-10T23:05:26.598Z,6.83
2019-03-10T23:07:55.911Z,4.70
2019-03-10T23:10:25.228Z,5.43
2019-03-10T23:12:54.549Z,6.27
2019-03-10T23:15:23.869Z,3.77
2019-03-10T23:17:53.194Z,5.97
2019-03-10T23:20:22.508Z,5.07
2019-03-10T23:22:51.919Z,4.93
2019-03-10T23:25:21.227Z,7.53
2019-03-10T23:27:50.579Z,4.33
2019-03-10T23:30:19.887Z,6.57
2019-03-10T23:32:49.225Z,4.10
2019-03-10T23:35:18.604Z,7.40
2019-03-10T23:37:47.937Z,4.00
2019-03-10T23:40:18.711Z,3.77
2019-03-10T23:42:48.098Z,3.33
2019-03-10T23:45:18.272Z,4.53
2019-03-10T23:47:47.915Z,3.67
2019-03-10T23:50:18.346Z,3.67
2019-03-10T23:52:47.674Z,2.53
2019-03-10T23:55:16.979Z,5.47
2019-03-10T23:57:46.867Z,2.90
